createdAt,value
2022-08-28T00:02:26.133Z,99233.19
2022-08-28T00:04:55.470Z,99236.31
2022-08-28T00:07:25.490Z,99227.69
2022-08-28T00:09:54.550Z,99218.63
2022-08-28T00:12:24.981Z,99214.53
2022-08-28T00:14:54.737Z,99212.41
2022-08-28T00:17:22.900Z,99213.66
2022-08-28T00:19:51.237Z,99201.09
2022-08-28T00:22:19.618Z,99206.78
2022-08-28T00:24:48.204Z,99204.84
2022-08-28T00:27:33.977Z,99202.25
2022-08-28T00:30:03.842Z,99194.84
2022-08-28T00:32:35.078Z,99190.09
2022-08-28T00:35:06.748Z,99195.06
2022-08-28T00:37:35.753Z,99186.72
2022-08-28T00:40:05.595Z,99196.91
2022-08-28T00:42:34.910Z,99195.22
2022-08-28T00:45:07.393Z,99194.94
2022-08-28T00:47:35.668Z,99200.28
2022-08-28T00:50:05.417Z,99200.81
2022-08-28T00:52:32.918Z,99203.75
2022-08-28T00:55:05.460Z,99197.34
2022-08-28T00:57:36.773Z,99196.91
2022-08-28T01:00:14.035Z,99197.13
2022-08-28T01:02:42.332Z,99193.13
2022-08-28T01:05:11.022Z,99193.03
2022-08-28T01:07:39.947Z,99182.84
2022-08-28T01:10:11.216Z,99185.09
2022-08-28T01:12:40.043Z,99183.94
2022-08-28T01:15:13.965Z,99176.66
2022-08-28T01:17:45.208Z,99166.66
2022-08-28T01:20:17.445Z,99168.63
2022-08-28T01:22:49.175Z,99156.72
2022-08-28T01:25:21.929Z,99162.44
2022-08-28T01:27:51.783Z,99163.75
2022-08-28T01:30:23.533Z,99157.19
2022-08-28T01:32:53.947Z,99158.03
2022-08-28T01:35:25.978Z,99151.00
2022-08-28T01:37:55.894Z,99144.25
2022-08-28T01:40:28.624Z,99145.63
2022-08-28T01:42:56.808Z,99146.63
2022-08-28T01:45:26.333Z,99141.84
2022-08-28T01:47:58.172Z,99154.78
2022-08-28T01:50:26.883Z,99150.19
2022-08-28T01:52:54.932Z,99148.91
2022-08-28T01:55:23.938Z,99145.34
2022-08-28T01:57:59.158Z,99135.44
2022-08-28T02:00:28.887Z,99136.84
2022-08-28T02:02:57.954Z,99129.75
2022-08-28T02:05:29.941Z,99137.44
2022-08-28T02:07:58.702Z,99130.88
2022-08-28T02:10:28.696Z,99132.66
2022-08-28T02:13:00.503Z,99130.25
2022-08-28T02:15:30.503Z,99123.44
2022-08-28T02:18:00.215Z,99127.53
2022-08-28T02:20:29.895Z,99120.03
2022-08-28T02:22:58.982Z,99121.59
2022-08-28T02:25:28.907Z,99113.56
2022-08-28T02:28:00.009Z,99119.91
2022-08-28T02:30:31.403Z,99114.59
2022-08-28T02:33:00.973Z,99115.94
2022-08-28T02:35:31.393Z,99108.81
2022-08-28T02:38:00.433Z,99119.97
2022-08-28T02:40:29.794Z,99115.13
2022-08-28T02:43:00.632Z,99116.25
2022-08-28T02:45:28.790Z,99112.75
2022-08-28T02:47:56.977Z,99110.75
2022-08-28T02:50:25.919Z,99108.75
2022-08-28T02:52:55.042Z,99111.84
2022-08-28T02:55:24.932Z,99119.28
2022-08-28T02:57:54.716Z,99119.47
2022-08-28T03:00:26.505Z,99114.69
2022-08-28T03:02:56.073Z,99121.31
2022-08-28T03:05:26.430Z,99121.41
2022-08-28T03:07:54.829Z,99131.13
2022-08-28T03:10:24.055Z,99129.25
2022-08-28T03:12:53.365Z,99117.41
2022-08-28T03:15:22.705Z,99119.16
2022-08-28T03:17:53.509Z,99141.16
2022-08-28T03:20:23.080Z,99130.06
2022-08-28T03:23:10.488Z,99124.47
2022-08-28T03:25:38.774Z,99127.53
2022-08-28T03:28:09.247Z,99126.03
2022-08-28T03:30:41.043Z,99124.72
2022-08-28T03:33:11.498Z,99124.94
2022-08-28T03:35:39.590Z,99125.88
2022-08-28T03:38:07.966Z,99133.91
2022-08-28T03:40:40.779Z,99130.59
2022-08-28T03:43:08.850Z,99137.06
2022-08-28T03:45:37.887Z,99137.56
2022-08-28T03:48:07.281Z,99142.28
2022-08-28T03:50:37.283Z,99135.84
2022-08-28T03:53:06.661Z,99139.16
2022-08-28T03:55:37.178Z,99139.94
2022-08-28T03:58:05.266Z,99140.50
2022-08-28T04:00:34.772Z,99139.56
2022-08-28T04:03:04.644Z,99149.41
2022-08-28T04:05:35.064Z,99157.00
2022-08-28T04:08:05.826Z,99156.56
2022-08-28T04:10:34.802Z,99155.53
2022-08-28T04:13:04.661Z,99161.19
2022-08-28T04:15:32.990Z,99159.72
2022-08-28T04:18:02.564Z,99167.25
2022-08-28T04:20:30.918Z,99168.97
2022-08-28T04:22:59.003Z,99173.63
2022-08-28T04:25:31.612Z,99175.53
2022-08-28T04:28:02.861Z,99180.41
2022-08-28T04:30:32.199Z,99180.34
2022-08-28T04:33:00.262Z,99188.00
2022-08-28T04:35:29.522Z,99180.59
2022-08-28T04:37:59.066Z,99186.25
2022-08-28T04:40:28.644Z,99189.72
2022-08-28T04:42:58.357Z,99191.72
2022-08-28T04:45:27.683Z,99192.72
2022-08-28T04:47:55.769Z,99199.78
2022-08-28T04:50:27.151Z,99203.41
2022-08-28T04:52:56.033Z,99200.09
2022-08-28T04:55:41.417Z,99206.34
2022-08-28T04:58:14.676Z,99206.97
2022-08-28T05:00:44.796Z,99210.16
2022-08-28T05:03:13.326Z,99208.41
2022-08-28T05:05:43.238Z,99206.59
2022-08-28T05:08:11.885Z,99214.00
2022-08-28T05:10:41.704Z,99213.63
2022-08-28T05:13:11.616Z,99210.88
2022-08-28T05:15:44.588Z,99208.91
2022-08-28T05:18:13.824Z,99212.25
2022-08-28T05:20:45.293Z,99215.00
2022-08-28T05:23:15.303Z,99217.03
2022-08-28T05:25:47.522Z,99231.28
2022-08-28T05:28:19.463Z,99219.34
2022-08-28T05:30:50.238Z,99228.78
2022-08-28T05:33:20.575Z,99224.44
2022-08-28T05:35:50.090Z,99224.13
2022-08-28T05:38:18.503Z,99221.31
2022-08-28T05:40:49.982Z,99211.63
2022-08-28T05:43:18.691Z,99221.13
2022-08-28T05:46:00.747Z,99219.72
2022-08-28T05:48:32.853Z,99220.59
2022-08-28T05:51:08.147Z,99224.78
2022-08-28T05:53:37.636Z,99221.75
2022-08-28T05:56:09.358Z,99227.50
2022-08-28T05:58:40.123Z,99225.69
2022-08-28T06:01:12.780Z,99226.97
2022-08-28T06:03:42.451Z,99233.44
2022-08-28T06:06:18.172Z,99235.50
2022-08-28T06:08:56.360Z,99237.38
2022-08-28T06:11:30.898Z,99232.19
2022-08-28T06:14:01.505Z,99233.78
2022-08-28T06:16:32.423Z,99241.69
2022-08-28T06:19:01.505Z,99232.25
2022-08-28T06:21:29.884Z,99247.06
2022-08-28T06:23:58.188Z,99250.66
2022-08-28T06:26:27.907Z,99239.59
2022-08-28T06:28:56.102Z,99242.03
2022-08-28T06:31:26.435Z,99252.31
2022-08-28T06:33:58.893Z,99250.63
2022-08-28T06:36:29.088Z,99243.84
2022-08-28T06:39:00.922Z,99254.22
2022-08-28T06:41:31.792Z,99245.44
2022-08-28T06:44:00.411Z,99254.66
2022-08-28T06:46:33.365Z,99249.22
2022-08-28T06:49:07.722Z,99252.50
2022-08-28T06:51:36.684Z,99247.28
2022-08-28T06:54:06.743Z,99243.13
2022-08-28T06:56:34.998Z,99252.13
2022-08-28T06:59:05.167Z,99253.16
2022-08-28T07:01:35.463Z,99262.44
2022-08-28T07:04:08.816Z,99263.66
2022-08-28T07:06:38.953Z,99274.59
2022-08-28T07:09:11.560Z,99278.59
2022-08-28T07:11:40.050Z,99278.75
2022-08-28T07:14:10.015Z,99273.16
2022-08-28T07:16:39.624Z,99276.69
2022-08-28T07:19:12.073Z,99280.03
2022-08-28T07:21:44.777Z,99281.84
2022-08-28T07:24:15.982Z,99286.81
2022-08-28T07:26:45.311Z,99294.97
2022-08-28T07:29:14.498Z,99297.09
2022-08-28T07:31:46.553Z,99288.00
2022-08-28T07:34:19.860Z,99292.94
2022-08-28T07:36:48.290Z,99297.75
2022-08-28T07:39:19.616Z,99313.41
2022-08-28T07:41:48.841Z,99315.59
2022-08-28T07:44:35.551Z,99306.47
2022-08-28T07:47:06.564Z,99309.47
2022-08-28T07:49:41.595Z,99307.88
2022-08-28T07:52:12.673Z,99322.84
2022-08-28T07:54:43.574Z,99309.00
2022-08-28T07:57:12.503Z,99316.41
2022-08-28T07:59:42.986Z,99318.25
2022-08-28T08:02:15.410Z,99326.84
2022-08-28T08:04:45.092Z,99327.16
2022-08-28T08:07:14.553Z,99329.00
2022-08-28T08:09:44.440Z,99329.25
2022-08-28T08:12:13.331Z,99330.28
2022-08-28T08:14:43.995Z,99321.31
2022-08-28T08:17:13.701Z,99324.03
2022-08-28T08:19:42.318Z,99341.25
2022-08-28T08:22:16.582Z,99337.88
2022-08-28T08:24:47.583Z,99338.53
2022-08-28T08:27:17.231Z,99330.84
2022-08-28T08:29:48.651Z,99336.59
2022-08-28T08:32:20.242Z,99333.59
2022-08-28T08:34:50.268Z,99333.16
2022-08-28T08:37:20.325Z,99349.31
2022-08-28T08:39:50.752Z,99349.53
2022-08-28T08:42:26.247Z,99357.09
2022-08-28T08:44:57.067Z,99357.44
2022-08-28T08:47:32.651Z,99352.09
2022-08-28T08:50:11.476Z,99357.25
2022-08-28T08:52:48.879Z,99362.31
2022-08-28T08:55:29.325Z,99367.34
2022-08-28T08:58:08.993Z,99372.31
2022-08-28T09:00:41.260Z,99374.25
2022-08-28T09:03:15.481Z,99377.19
2022-08-28T09:05:50.313Z,99377.00
2022-08-28T09:08:30.475Z,99386.94
2022-08-28T09:11:12.840Z,99385.34
2022-08-28T09:13:51.894Z,99387.94
2022-08-28T09:16:37.679Z,99378.22
2022-08-28T09:19:07.383Z,99384.38
2022-08-28T09:21:40.627Z,99387.31
2022-08-28T09:24:19.531Z,99386.78
2022-08-28T09:26:55.426Z,99390.66
2022-08-28T09:29:31.583Z,99389.09
2022-08-28T09:32:00.501Z,99381.69
2022-08-28T09:34:38.564Z,99384.69
2022-08-28T09:37:09.758Z,99384.91
2022-08-28T09:39:49.006Z,99372.72
2022-08-28T09:42:40.779Z,99380.78
2022-08-28T09:45:18.639Z,99377.41
2022-08-28T09:47:49.969Z,99371.81
2022-08-28T09:50:38.160Z,99373.44
2022-08-28T09:53:22.363Z,99388.88
2022-08-28T09:55:58.483Z,99380.59
2022-08-28T09:58:36.244Z,99380.06
2022-08-28T10:01:18.644Z,99377.88
2022-08-28T10:03:55.489Z,99374.28
2022-08-28T10:06:27.190Z,99389.72
2022-08-28T10:09:07.756Z,99377.50
2022-08-28T10:11:48.314Z,99370.03
2022-08-28T10:14:33.278Z,99371.34
2022-08-28T10:17:12.149Z,99364.50
2022-08-28T10:19:47.399Z,99356.69
2022-08-28T10:22:26.835Z,99365.84
2022-08-28T10:25:05.385Z,99352.44
2022-08-28T10:27:48.580Z,99351.13
2022-08-28T10:30:22.028Z,99347.00
2022-08-28T10:33:00.403Z,99351.50
2022-08-28T10:35:38.477Z,99358.53
2022-08-28T10:38:10.507Z,99358.56
2022-08-28T10:40:46.449Z,99358.31
2022-08-28T10:43:20.419Z,99356.13
2022-08-28T10:45:51.700Z,99352.06
2022-08-28T10:48:28.635Z,99343.31
2022-08-28T10:51:00.234Z,99342.22
2022-08-28T10:53:39.313Z,99332.41
2022-08-28T10:56:11.513Z,99331.00
2022-08-28T10:58:43.342Z,99336.41
2022-08-28T11:01:16.288Z,99335.50
2022-08-28T11:03:50.031Z,99329.72
2022-08-28T11:06:32.642Z,99335.50
2022-08-28T11:09:24.817Z,99340.16
2022-08-28T11:12:02.031Z,99346.84
2022-08-28T11:14:35.443Z,99329.16
2022-08-28T11:17:14.324Z,99337.28
2022-08-28T11:20:33.465Z,99330.50
2022-08-28T11:23:10.551Z,99343.91
2022-08-28T11:25:48.971Z,99340.19
2022-08-28T11:28:22.511Z,99340.31
2022-08-28T11:31:29.033Z,99343.06
2022-08-28T11:34:00.219Z,99343.72
2022-08-28T11:37:03.823Z,99344.44
2022-08-28T11:39:32.583Z,99355.34
2022-08-28T11:42:32.411Z,99362.50
2022-08-28T11:45:04.194Z,99341.19
2022-08-28T11:47:56.954Z,99347.13
2022-08-28T11:50:33.493Z,99356.88
2022-08-28T11:53:36.081Z,99353.69
2022-08-28T11:56:30.486Z,99351.78
2022-08-28T11:59:09.877Z,99351.56
2022-08-28T12:01:41.339Z,99347.22
2022-08-28T12:04:12.486Z,99353.63
2022-08-28T12:06:50.591Z,99359.81
2022-08-28T12:09:43.968Z,99362.81
2022-08-28T12:12:16.168Z,99361.81
2022-08-28T12:15:09.332Z,99362.06
2022-08-28T12:17:50.159Z,99371.66
2022-08-28T12:21:07.209Z,99368.19
2022-08-28T12:23:42.944Z,99364.19
2022-08-28T12:26:21.802Z,99358.25
2022-08-28T12:28:52.097Z,99357.38
2022-08-28T12:31:45.967Z,99357.19
2022-08-28T12:34:21.072Z,99345.50
2022-08-28T12:36:57.617Z,99354.38
2022-08-28T12:39:28.912Z,99355.00
2022-08-28T12:41:58.921Z,99344.75
2022-08-28T12:44:31.211Z,99350.09
2022-08-28T12:47:00.204Z,99353.09
2022-08-28T12:49:32.452Z,99335.81
2022-08-28T12:52:17.438Z,99337.78
2022-08-28T12:54:51.568Z,99347.09
2022-08-28T12:57:25.123Z,99344.91
2022-08-28T12:59:59.436Z,99336.88
2022-08-28T13:02:31.255Z,99338.78
2022-08-28T13:05:03.817Z,99336.97
2022-08-28T13:07:34.034Z,99328.53
2022-08-28T13:10:07.954Z,99337.53
2022-08-28T13:12:55.799Z,99332.50
2022-08-28T13:15:48.903Z,99332.16
2022-08-28T13:18:37.247Z,99322.78
2022-08-28T13:21:32.785Z,99316.13
2022-08-28T13:24:30.011Z,99312.13
2022-08-28T13:27:08.157Z,99316.50
2022-08-28T13:29:37.668Z,99322.91
2022-08-28T13:32:08.804Z,99322.53
2022-08-28T13:34:39.093Z,99321.16
2022-08-28T13:37:45.237Z,99325.34
2022-08-28T13:40:38.210Z,99324.34
2022-08-28T13:43:07.549Z,99321.28
2022-08-28T13:45:42.931Z,99320.38
2022-08-28T13:48:15.271Z,99320.91
2022-08-28T13:50:46.843Z,99324.66
2022-08-28T13:53:21.910Z,99337.59
2022-08-28T13:58:35.944Z,99333.28
2022-08-28T14:01:08.736Z,99341.44
2022-08-28T14:03:36.054Z,99329.66
2022-08-28T14:06:12.768Z,99337.88
2022-08-28T14:08:45.513Z,99332.91
2022-08-28T14:11:16.283Z,99333.88
2022-08-28T14:13:55.855Z,99331.94
2022-08-28T14:16:37.799Z,99332.88
2022-08-28T14:19:13.626Z,99331.63
2022-08-28T14:21:42.411Z,99324.53
2022-08-28T14:24:15.241Z,99323.63
2022-08-28T14:26:45.653Z,99320.78
2022-08-28T14:29:19.329Z,99328.19
2022-08-28T14:31:51.058Z,99335.16
2022-08-28T14:34:22.491Z,99333.53
2022-08-28T14:36:55.656Z,99338.19
2022-08-28T14:39:27.720Z,99331.25
2022-08-28T14:41:57.184Z,99332.22
2022-08-28T14:44:26.658Z,99336.81
2022-08-28T14:46:56.093Z,99338.25
2022-08-28T14:49:28.906Z,99341.00
2022-08-28T14:51:58.561Z,99343.59
2022-08-28T14:54:34.520Z,99349.41
2022-08-28T14:57:03.642Z,99347.69
2022-08-28T14:59:37.662Z,99336.38
2022-08-28T15:02:06.082Z,99337.66
2022-08-28T15:04:37.868Z,99337.78
2022-08-28T15:07:11.001Z,99338.56
2022-08-28T15:09:51.299Z,99336.13
2022-08-28T15:12:22.223Z,99339.00
2022-08-28T15:14:57.490Z,99331.16
2022-08-28T15:17:34.126Z,99331.78
2022-08-28T15:20:06.012Z,99338.31
2022-08-28T15:22:34.173Z,99332.28
2022-08-28T15:25:09.869Z,99329.69
2022-08-28T15:27:40.561Z,99331.03
2022-08-28T15:30:13.154Z,99329.94
2022-08-28T15:32:49.785Z,99336.03
2022-08-28T15:35:21.458Z,99331.34
2022-08-28T15:37:52.086Z,99340.16
2022-08-28T15:40:41.267Z,99346.88
2022-08-28T15:43:09.468Z,99356.25
2022-08-28T15:45:41.083Z,99342.44
2022-08-28T15:48:11.315Z,99347.72
2022-08-28T15:50:52.642Z,99350.34
2022-08-28T15:53:22.259Z,99352.22
2022-08-28T15:55:54.249Z,99346.25
2022-08-28T15:58:22.500Z,99352.97
2022-08-28T16:00:53.941Z,99355.56
2022-08-28T16:03:22.772Z,99348.94
2022-08-28T16:05:50.978Z,99354.88
2022-08-28T16:08:21.052Z,99358.97
2022-08-28T16:10:52.087Z,99362.25
2022-08-28T16:13:21.909Z,99360.25
2022-08-28T16:15:55.550Z,99353.50
2022-08-28T16:18:26.134Z,99360.63
2022-08-28T16:21:04.580Z,99372.75
2022-08-28T16:23:35.834Z,99363.19
2022-08-28T16:26:09.888Z,99357.03
2022-08-28T16:28:40.342Z,99383.91
2022-08-28T16:31:19.073Z,99374.03
2022-08-28T16:33:50.357Z,99371.50
2022-08-28T16:36:23.833Z,99384.31
2022-08-28T16:39:03.436Z,99377.25
2022-08-28T16:41:34.598Z,99382.97
2022-08-28T16:44:04.439Z,99382.97
2022-08-28T16:46:35.291Z,99390.16
2022-08-28T16:49:05.472Z,99381.00
2022-08-28T16:51:34.274Z,99393.78
2022-08-28T16:54:05.219Z,99388.53
2022-08-28T16:56:36.179Z,99386.19
2022-08-28T16:59:10.501Z,99392.00
2022-08-28T17:01:42.851Z,99387.63
2022-08-28T17:04:12.427Z,99397.97
2022-08-28T17:06:47.734Z,99406.13
2022-08-28T17:09:16.093Z,99408.84
2022-08-28T17:11:45.533Z,99412.50
2022-08-28T17:14:23.879Z,99415.13
2022-08-28T17:16:52.886Z,99417.88
2022-08-28T17:19:24.834Z,99425.41
2022-08-28T17:22:11.146Z,99429.91
2022-08-28T17:24:40.433Z,99434.25
2022-08-28T17:27:25.568Z,99426.31
2022-08-28T17:29:54.169Z,99429.41
2022-08-28T17:32:22.413Z,99431.69
2022-08-28T17:34:53.301Z,99434.00
2022-08-28T17:37:24.433Z,99442.47
2022-08-28T17:39:54.819Z,99444.41
2022-08-28T17:42:33.320Z,99442.69
2022-08-28T17:45:02.285Z,99445.72
2022-08-28T17:47:33.562Z,99442.97
2022-08-28T17:50:04.015Z,99450.56
2022-08-28T17:52:33.630Z,99450.94
2022-08-28T17:55:03.866Z,99457.78
2022-08-28T17:57:34.408Z,99456.69
2022-08-28T18:00:05.194Z,99457.97
2022-08-28T18:02:57.811Z,99459.94
2022-08-28T18:05:27.491Z,99469.09
2022-08-28T18:07:56.133Z,99467.00
2022-08-28T18:10:25.606Z,99470.69
2022-08-28T18:12:55.868Z,99477.03
2022-08-28T18:15:25.526Z,99472.28
2022-08-28T18:17:58.382Z,99475.97
2022-08-28T18:20:30.193Z,99476.22
2022-08-28T18:23:07.814Z,99480.59
2022-08-28T18:25:50.591Z,99481.47
2022-08-28T18:28:27.497Z,99487.94
2022-08-28T18:30:57.221Z,99502.88
2022-08-28T18:33:30.954Z,99494.84
2022-08-28T18:36:00.432Z,99519.78
2022-08-28T18:38:38.823Z,99518.50
2022-08-28T18:41:17.878Z,99513.72
2022-08-28T18:43:49.946Z,99506.78
2022-08-28T18:46:19.912Z,99518.09
2022-08-28T18:48:52.597Z,99507.22
2022-08-28T18:51:22.594Z,99517.66
2022-08-28T18:53:51.607Z,99519.53
2022-08-28T18:56:20.410Z,99518.41
2022-08-28T18:58:52.430Z,99526.34
2022-08-28T19:01:24.614Z,99523.94
2022-08-28T19:04:00.419Z,99532.34
2022-08-28T19:06:33.762Z,99531.09
2022-08-28T19:09:06.142Z,99529.81
2022-08-28T19:11:43.387Z,99542.53
2022-08-28T19:14:16.041Z,99533.16
2022-08-28T19:16:44.581Z,99545.78
2022-08-28T19:19:24.624Z,99540.56
2022-08-28T19:21:56.007Z,99541.91
2022-08-28T19:24:25.767Z,99553.41
2022-08-28T19:27:04.976Z,99541.91
2022-08-28T19:29:39.109Z,99543.38
2022-08-28T19:32:09.917Z,99548.84
2022-08-28T19:34:38.545Z,99545.63
2022-08-28T19:37:16.392Z,99543.28
2022-08-28T19:39:56.316Z,99556.16
2022-08-28T19:42:27.618Z,99555.84
2022-08-28T19:44:59.937Z,99548.56
2022-08-28T19:47:35.508Z,99551.13
2022-08-28T19:50:09.788Z,99558.72
2022-08-28T19:52:49.769Z,99566.28
2022-08-28T19:55:22.548Z,99573.22
2022-08-28T19:57:54.079Z,99572.00
2022-08-28T20:00:29.969Z,99568.28
2022-08-28T20:02:59.905Z,99573.19
2022-08-28T20:05:32.204Z,99584.91
2022-08-28T20:08:03.015Z,99584.88
2022-08-28T20:10:31.920Z,99590.97
2022-08-28T20:13:07.170Z,99598.53
2022-08-28T20:15:39.686Z,99597.03
2022-08-28T20:18:10.249Z,99604.53
2022-08-28T20:20:40.212Z,99602.25
2022-08-28T20:23:09.972Z,99608.91
2022-08-28T20:25:40.583Z,99605.41
2022-08-28T20:28:19.004Z,99603.75
2022-08-28T20:30:48.788Z,99607.09
2022-08-28T20:33:17.268Z,99605.03
2022-08-28T20:35:46.327Z,99616.91
2022-08-28T20:38:16.686Z,99603.09
2022-08-28T20:40:45.674Z,99599.53
2022-08-28T20:43:26.454Z,99613.41
2022-08-28T20:46:02.974Z,99598.97
2022-08-28T20:48:40.909Z,99610.06
2022-08-28T20:51:11.535Z,99606.03
2022-08-28T20:53:51.645Z,99600.34
2022-08-28T20:56:23.130Z,99604.59
2022-08-28T20:58:51.846Z,99612.75
2022-08-28T21:01:26.112Z,99622.38
2022-08-28T21:03:58.011Z,99609.00
2022-08-28T21:06:27.389Z,99615.47
2022-08-28T21:09:04.001Z,99617.41
2022-08-28T21:11:34.930Z,99623.47
2022-08-28T21:14:03.528Z,99625.72
2022-08-28T21:16:35.349Z,99630.34
2022-08-28T21:19:15.657Z,99616.97
2022-08-28T21:21:47.557Z,99617.16
2022-08-28T21:24:18.588Z,99618.97
2022-08-28T21:26:50.582Z,99611.72
2022-08-28T21:29:23.000Z,99620.28
2022-08-28T21:31:53.675Z,99625.31
2022-08-28T21:34:22.724Z,99620.09
2022-08-28T21:36:54.477Z,99622.81
2022-08-28T21:39:30.943Z,99629.47
2022-08-28T21:42:04.477Z,99629.03
2022-08-28T21:44:33.883Z,99635.53
2022-08-28T21:47:06.183Z,99635.34
2022-08-28T21:49:35.510Z,99632.22
2022-08-28T21:52:06.564Z,99640.75
2022-08-28T21:54:37.074Z,99630.56
2022-08-28T21:57:05.670Z,99625.97
2022-08-28T21:59:38.590Z,99623.44
2022-08-28T22:02:08.227Z,99630.78
2022-08-28T22:04:38.737Z,99616.78
2022-08-28T22:07:07.067Z,99626.56
2022-08-28T22:09:35.175Z,99621.97
2022-08-28T22:12:06.444Z,99621.97
2022-08-28T22:14:35.594Z,99620.75
2022-08-28T22:17:10.179Z,99631.19
2022-08-28T22:19:43.363Z,99628.91
2022-08-28T22:22:32.796Z,99632.22
2022-08-28T22:25:00.988Z,99631.19
2022-08-28T22:27:31.966Z,99629.31
2022-08-28T22:30:00.925Z,99637.84
2022-08-28T22:32:31.327Z,99648.31
2022-08-28T22:35:01.883Z,99641.19
2022-08-28T22:37:30.155Z,99647.47
2022-08-28T22:39:59.330Z,99640.16
2022-08-28T22:42:28.788Z,99636.59
2022-08-28T22:44:57.453Z,99638.28
2022-08-28T22:47:25.704Z,99632.44
2022-08-28T22:49:56.240Z,99642.47
2022-08-28T22:52:30.044Z,99629.72
2022-08-28T22:54:59.171Z,99633.91
2022-08-28T22:57:28.647Z,99641.22
2022-08-28T23:00:01.492Z,99635.97
2022-08-28T23:02:31.576Z,99638.91
2022-08-28T23:05:00.511Z,99635.78
2022-08-28T23:07:30.170Z,99630.56
2022-08-28T23:09:58.444Z,99628.88
2022-08-28T23:12:28.144Z,99632.63
2022-08-28T23:14:56.352Z,99629.94
2022-08-28T23:17:33.708Z,99634.94
2022-08-28T23:20:02.486Z,99637.88
2022-08-28T23:22:41.788Z,99635.56
2022-08-28T23:25:15.851Z,99629.50
2022-08-28T23:27:44.078Z,99634.94
2022-08-28T23:30:13.776Z,99640.78
2022-08-28T23:32:43.541Z,99632.03
2022-08-28T23:35:14.251Z,99636.41
2022-08-28T23:37:48.479Z,99638.50
2022-08-28T23:40:21.159Z,99637.44
2022-08-28T23:42:50.174Z,99635.97
2022-08-28T23:45:22.544Z,99639.75
2022-08-28T23:47:51.312Z,99644.75
2022-08-28T23:50:22.031Z,99645.81
2022-08-28T23:52:53.161Z,99640.16
2022-08-28T23:55:21.866Z,99636.00
2022-08-28T23:57:52.398Z,99639.34
